EST,Max TemperatureF,Mean TemperatureF,Min TemperatureF,Max Dew PointF,MeanDew PointF,Min DewpointF,Max Humidity, Mean Humidity, Min Humidity, Max Sea Level PressureIn, Mean Sea Level PressureIn, Min Sea Level PressureIn, Max VisibilityMiles, Mean VisibilityMiles, Min VisibilityMiles, Max Wind SpeedMPH, Mean Wind SpeedMPH, Max Gust SpeedMPH,PrecipitationIn, CloudCover, Events, WindDirDegrees
2012-11-1,52,40,28,34,28,24,86,64,37,29.89,29.85,29.81,10,10,10,16,10,,0.00,5,,285
2012-11-2,50,42,35,35,32,30,86,70,49,30.13,30.01,29.87,10,10,10,12,5,,0.00,5,,331
2012-11-3,41,35,29,33,31,28,95,83,69,30.21,30.17,30.14,10,10,4,10,5,,0.00,5,,27
2012-11-4,43,35,28,32,29,27,94,78,61,30.23,30.20,30.18,10,9,2,8,4,,0.00,6,,8
2012-11-5,44,34,23,29,24,21,100,86,53,30.22,30.19,30.13,10,6,0,13,4,,0.00,0,Fog,56
2012-11-6,47,36,24,38,30,22,95,82,52,30.12,30.02,29.93,10,8,2,9,5,,0.01,3,Rain,98
2012-11-7,49,42,34,38,36,31,98,85,53,30.16,29.98,29.91,10,7,2,10,2,,0.01,4,Rain,41
2012-11-8,44,36,27,39,31,27,100,94,74,30.26,30.20,30.16,10,4,0,8,1,,0.00,2,Fog,229
2012-11-9,60,46,31,44,38,30,100,77,50,30.19,30.12,30.04,10,7,2,15,8,23,0.00,1,,167
2012-11-10,70,58,45,52,45,40,83,64,49,30.10,30.06,30.01,10,10,10,17,11,25,0.00,2,,182
2012-11-11,68,57,46,50,45,42,84,61,47,30.10,30.02,29.91,10,10,10,24,16,37,0.00,2,,178
2012-11-12,60,46,31,54,39,24,100,89,63,30.37,30.06,29.93,10,8,2,23,16,40,0.37,7,Rain-Snow,268
2012-11-13,37,32,26,27,22,18,89,70,47,30.54,30.48,30.37,10,10,10,13,7,,0.00,0,,285
2012-11-14,39,32,24,29,26,21,88,78,62,30.58,30.51,30.42,10,10,10,8,5,,0.00,0,,102
2012-11-15,44,33,22,32,25,21,100,90,59,30.43,30.39,30.34,10,5,1,7,4,,0.00,1,,73
2012-11-16,50,37,24,32,27,23,100,79,43,30.51,30.45,30.40,10,5,1,5,1,,0.00,0,,116
2012-11-17,53,39,25,36,31,23,94,75,49,30.59,30.53,30.48,10,9,4,10,5,,0.00,0,,95
2012-11-18,56,43,30,36,33,28,92,71,42,30.48,30.43,30.38,10,10,10,8,7,,0.00,0,,94
2012-11-19,56,44,32,43,36,27,82,66,46,30.37,30.27,30.17,10,9,2,8,5,,0.00,4,,160
2012-11-20,53,50,45,45,42,37,91,78,66,30.17,30.13,30.08,10,10,3,9,5,,0.00,8,Rain,212
2012-11-21,55,44,33,52,39,34,100,99,71,30.28,30.20,30.17,10,2,0,6,1,,0.00,0,Fog,203
2012-11-22,61,50,38,48,42,39,100,86,51,30.19,30.09,29.89,10,6,2,21,9,29,0.01,2,Rain,190
2012-11-23,53,40,27,52,36,17,100,83,62,30.21,29.99,29.87,10,9,6,30,22,40,0.05,7,Rain,267
2012-11-24,30,26,23,21,20,18,86,71,64,30.26,30.19,30.09,10,10,10,16,11,,0.00,8,,255
2012-11-25,45,36,26,30,26,22,83,69,51,30.08,29.96,29.89,10,10,10,18,10,,0.00,3,,242
2012-11-26,40,33,26,30,27,23,92,74,60,30.33,30.23,30.05,10,10,7,13,4,,0.00,6,Snow,335
2012-11-27,37,30,24,25,23,19,88,72,50,30.42,30.34,30.27,10,10,10,8,4,,0.00,2,,288
2012-11-28,41,32,23,25,22,20,88,73,49,30.41,30.36,30.30,10,10,10,13,8,,0.00,2,,244
2012-11-29,49,38,26,32,28,22,85,71,51,30.35,30.27,30.17,10,10,10,17,9,,0.00,1,,184
2012-11-30,55,43,31,36,32,28,88,70,46,30.18,30.14,30.09,10,10,10,12,7,,0.00,3,,184